createdAt,value
2019-03-03T00:00:01.062Z,1.70
2019-03-03T00:02:28.644Z,1.30
2019-03-03T00:04:56.755Z,1.70
2019-03-03T00:07:24.323Z,1.83
2019-03-03T00:09:52.414Z,2.20
2019-03-03T00:12:20.104Z,2.20
2019-03-03T00:14:47.611Z,2.13
2019-03-03T00:17:15.211Z,2.50
2019-03-03T00:19:44.139Z,2.10
2019-03-03T00:22:11.694Z,2.10
2019-03-03T00:24:39.676Z,2.50
2019-03-03T00:27:07.275Z,1.93
2019-03-03T00:29:35.197Z,2.00
2019-03-03T00:32:03.175Z,2.13
2019-03-03T00:34:31.026Z,2.13
2019-03-03T00:37:18.043Z,1.97
2019-03-03T00:40:10.812Z,2.53
2019-03-03T00:42:58.233Z,2.10
2019-03-03T00:45:42.486Z,2.27
2019-03-03T00:48:16.764Z,1.73
2019-03-03T00:51:16.186Z,1.70
2019-03-03T00:54:01.808Z,2.93
2019-03-03T00:56:46.653Z,1.60
2019-03-03T00:59:32.534Z,2.13
2019-03-03T01:02:13.792Z,2.80
2019-03-03T01:04:58.355Z,2.80
2019-03-03T01:07:51.296Z,2.10
2019-03-03T01:10:50.687Z,2.10
2019-03-03T01:13:47.037Z,2.00
2019-03-03T01:16:39.957Z,2.33
2019-03-03T01:19:13.704Z,1.90
2019-03-03T01:21:49.869Z,2.13
2019-03-03T01:24:36.994Z,2.10
2019-03-03T01:27:04.574Z,2.80
2019-03-03T01:29:32.441Z,2.60
2019-03-03T01:32:04.190Z,2.67
2019-03-03T01:34:32.063Z,2.47
2019-03-03T01:36:59.663Z,2.73
2019-03-03T01:39:27.323Z,2.07
2019-03-03T01:41:55.283Z,2.67
2019-03-03T01:44:22.923Z,2.07
2019-03-03T01:46:51.164Z,3.40
2019-03-03T01:49:18.742Z,1.77
2019-03-03T01:51:47.721Z,1.90
2019-03-03T01:54:15.355Z,2.73
2019-03-03T01:56:43.065Z,3.17
2019-03-03T01:59:10.701Z,3.47
2019-03-03T02:01:38.278Z,2.33
2019-03-03T02:04:05.890Z,2.27
2019-03-03T02:06:33.479Z,2.27
2019-03-03T02:09:01.308Z,2.30
2019-03-03T02:11:28.912Z,2.53
2019-03-03T02:13:56.949Z,1.80
2019-03-03T02:16:24.565Z,2.57
2019-03-03T02:18:52.499Z,2.30
2019-03-03T02:21:20.578Z,3.17
2019-03-03T02:23:48.122Z,3.50
2019-03-03T02:26:15.734Z,1.60
2019-03-03T02:28:43.305Z,2.40
2019-03-03T02:31:10.769Z,2.10
2019-03-03T02:33:38.269Z,2.90
2019-03-03T02:36:05.823Z,2.30
2019-03-03T02:38:34.641Z,2.03
2019-03-03T02:41:02.119Z,2.30
2019-03-03T02:43:34.413Z,2.03
2019-03-03T02:46:02.393Z,3.20
2019-03-03T02:48:30.010Z,2.63
2019-03-03T02:50:57.621Z,3.23
2019-03-03T02:53:27.540Z,2.37
2019-03-03T02:55:55.166Z,2.33
2019-03-03T02:58:22.999Z,2.50
2019-03-03T03:00:55.750Z,2.23
2019-03-03T03:03:23.894Z,1.93
2019-03-03T03:06:00.905Z,2.90
2019-03-03T03:08:33.143Z,2.10
2019-03-03T03:11:18.233Z,3.80
2019-03-03T03:13:55.220Z,2.97
2019-03-03T03:16:52.681Z,3.17
2019-03-03T03:19:34.862Z,2.67
2019-03-03T03:22:37.002Z,2.10
2019-03-03T03:25:19.826Z,2.30
2019-03-03T03:28:05.166Z,2.67
2019-03-03T03:30:39.652Z,2.40
2019-03-03T03:33:26.756Z,2.70
2019-03-03T03:36:22.922Z,3.27
2019-03-03T03:39:10.032Z,2.40
2019-03-03T03:41:44.016Z,3.80
2019-03-03T03:44:25.148Z,2.40
2019-03-03T03:47:11.973Z,3.10
2019-03-03T03:49:54.642Z,3.17
2019-03-03T03:52:53.855Z,2.73
2019-03-03T03:55:50.820Z,2.10
2019-03-03T03:58:25.595Z,2.60
2019-03-03T04:01:18.682Z,2.73
2019-03-03T04:04:08.711Z,3.30
2019-03-03T04:06:45.732Z,3.90
2019-03-03T04:09:35.211Z,2.93
2019-03-03T04:12:21.177Z,3.47
2019-03-03T04:15:20.419Z,3.77
2019-03-03T04:18:06.066Z,3.57
2019-03-03T04:20:52.238Z,3.30
2019-03-03T04:23:42.076Z,3.70
2019-03-03T04:26:29.169Z,3.87
2019-03-03T04:29:05.535Z,2.97
2019-03-03T04:31:44.259Z,3.40
2019-03-03T04:34:40.507Z,4.67
2019-03-03T04:37:15.986Z,4.10
2019-03-03T04:40:05.810Z,4.07
2019-03-03T04:43:02.154Z,3.20
2019-03-03T04:45:49.568Z,3.73
2019-03-03T04:48:31.631Z,3.23
2019-03-03T04:51:17.274Z,3.63
2019-03-03T04:54:14.606Z,4.23
2019-03-03T04:57:07.687Z,3.73
2019-03-03T04:59:57.626Z,4.07
2019-03-03T05:03:00.121Z,4.70
2019-03-03T05:05:37.688Z,4.13
2019-03-03T05:08:22.815Z,4.47
2019-03-03T05:11:09.053Z,4.17
2019-03-03T05:13:45.574Z,4.10
2019-03-03T05:16:35.688Z,3.73
2019-03-03T05:19:11.162Z,3.87
2019-03-03T05:21:41.101Z,4.33
2019-03-03T05:24:08.825Z,4.27
2019-03-03T05:26:36.529Z,4.03
2019-03-03T05:29:04.156Z,4.07
2019-03-03T05:31:31.850Z,3.50
2019-03-03T05:33:59.486Z,3.53
2019-03-03T05:36:27.079Z,3.37
2019-03-03T05:38:54.712Z,4.23
2019-03-03T05:41:22.319Z,4.83
2019-03-03T05:43:49.846Z,4.37
2019-03-03T05:46:17.719Z,4.23
2019-03-03T05:48:45.319Z,4.20
2019-03-03T05:51:12.936Z,3.63
2019-03-03T05:53:40.621Z,3.60
2019-03-03T05:56:08.632Z,4.03
2019-03-03T05:58:36.529Z,4.83
2019-03-03T06:01:04.358Z,3.13
2019-03-03T06:03:31.976Z,3.27
2019-03-03T06:05:59.616Z,4.90
2019-03-03T06:08:27.427Z,4.43
2019-03-03T06:10:54.949Z,3.93
2019-03-03T06:13:22.753Z,3.97
2019-03-03T06:15:51.114Z,4.33
2019-03-03T06:18:18.746Z,4.27
2019-03-03T06:20:46.264Z,4.40
2019-03-03T06:23:13.893Z,4.40
2019-03-03T06:25:42.169Z,4.07
2019-03-03T06:28:09.634Z,3.97
2019-03-03T06:30:37.218Z,4.80
2019-03-03T06:33:04.776Z,4.50
2019-03-03T06:35:32.374Z,4.60
2019-03-03T06:37:59.935Z,4.53
2019-03-03T06:40:27.526Z,4.17
2019-03-03T06:42:55.236Z,4.50
2019-03-03T06:45:22.852Z,4.50
2019-03-03T06:47:50.417Z,4.37
2019-03-03T06:50:17.928Z,5.67
2019-03-03T06:52:45.608Z,5.37
2019-03-03T06:55:14.315Z,4.50
2019-03-03T06:57:41.883Z,5.27
2019-03-03T07:00:11.184Z,5.27
2019-03-03T07:02:39.861Z,5.47
2019-03-03T07:05:08.917Z,5.00
2019-03-03T07:07:36.874Z,5.40
2019-03-03T07:10:05.622Z,4.43
2019-03-03T07:12:33.233Z,4.70
2019-03-03T07:15:00.776Z,4.80
2019-03-03T07:17:28.344Z,5.30
2019-03-03T07:19:55.914Z,4.80
2019-03-03T07:22:23.546Z,5.83
2019-03-03T07:24:51.151Z,5.43
2019-03-03T07:27:19.102Z,5.23
2019-03-03T07:29:46.785Z,6.07
2019-03-03T07:32:14.398Z,5.07
2019-03-03T07:34:41.907Z,5.83
2019-03-03T07:37:09.559Z,5.50
2019-03-03T07:39:37.401Z,5.60
2019-03-03T07:42:05.280Z,7.07
2019-03-03T07:44:34.183Z,6.83
2019-03-03T07:47:02.123Z,8.97
2019-03-03T07:49:29.617Z,8.50
2019-03-03T07:51:57.249Z,8.80
2019-03-03T07:54:44.604Z,10.60
2019-03-03T07:57:12.593Z,10.70
2019-03-03T07:59:40.160Z,10.07
2019-03-03T08:02:07.797Z,11.13
2019-03-03T08:04:35.391Z,11.67
2019-03-03T08:07:03.018Z,11.50
2019-03-03T08:09:30.596Z,12.23
2019-03-03T08:11:58.489Z,12.50
2019-03-03T08:14:25.987Z,12.80
2019-03-03T08:16:53.622Z,11.97
2019-03-03T08:19:21.252Z,13.03
2019-03-03T08:21:48.869Z,13.73
2019-03-03T08:24:16.493Z,13.33
2019-03-03T08:26:44.465Z,13.03
2019-03-03T08:29:12.481Z,12.33
2019-03-03T08:31:40.378Z,13.33
2019-03-03T08:34:07.900Z,11.83
2019-03-03T08:36:35.497Z,12.90
2019-03-03T08:39:04.385Z,12.23
2019-03-03T08:41:33.446Z,10.90
2019-03-03T08:44:05.774Z,10.90
2019-03-03T08:46:50.438Z,10.47
2019-03-03T08:49:37.562Z,10.77
2019-03-03T08:52:22.799Z,10.07
2019-03-03T08:55:13.202Z,9.43
2019-03-03T08:58:06.034Z,8.77
2019-03-03T09:00:40.901Z,8.67
2019-03-03T09:03:40.067Z,9.67
2019-03-03T09:06:31.410Z,9.53
2019-03-03T09:09:06.018Z,9.03
2019-03-03T09:12:08.468Z,8.30
2019-03-03T09:15:04.952Z,7.90
2019-03-03T09:17:50.600Z,7.77
2019-03-03T09:20:36.134Z,8.43
2019-03-03T09:23:12.871Z,7.70
2019-03-03T09:25:56.421Z,7.40
2019-03-03T09:28:42.314Z,7.83
2019-03-03T09:31:28.052Z,7.30
2019-03-03T09:34:09.986Z,6.47
2019-03-03T09:36:55.462Z,6.77
2019-03-03T09:39:54.491Z,7.47
2019-03-03T09:42:36.772Z,7.07
2019-03-03T09:45:23.986Z,6.83
2019-03-03T09:48:06.022Z,7.40
2019-03-03T09:50:58.934Z,7.97
2019-03-03T09:53:50.043Z,7.03
2019-03-03T09:56:35.984Z,7.27
2019-03-03T09:59:24.116Z,7.60
2019-03-03T10:02:14.247Z,8.23
2019-03-03T10:05:03.848Z,8.03
2019-03-03T10:07:50.978Z,7.50
2019-03-03T10:10:26.954Z,8.27
2019-03-03T10:13:14.457Z,8.43
2019-03-03T10:15:59.315Z,7.80
2019-03-03T10:18:44.587Z,7.77
2019-03-03T10:21:32.600Z,7.50
2019-03-03T10:24:23.020Z,8.20
2019-03-03T10:27:19.243Z,9.27
2019-03-03T10:29:57.739Z,8.97
2019-03-03T10:32:45.182Z,8.10
2019-03-03T10:35:32.426Z,9.80
2019-03-03T10:38:14.412Z,8.20
2019-03-03T10:41:14.116Z,9.13
2019-03-03T10:44:01.212Z,7.77
2019-03-03T10:46:44.058Z,8.67
2019-03-03T10:49:31.128Z,8.57
2019-03-03T10:52:21.346Z,7.53
2019-03-03T10:55:06.199Z,7.93
2019-03-03T10:57:51.288Z,7.93
2019-03-03T11:00:38.598Z,7.80
2019-03-03T11:03:17.000Z,7.40
2019-03-03T11:06:17.035Z,7.50
2019-03-03T11:09:19.171Z,6.43
2019-03-03T11:12:12.738Z,6.43
2019-03-03T11:15:05.620Z,7.47
2019-03-03T11:17:53.253Z,7.20
2019-03-03T11:20:34.660Z,7.63
2019-03-03T11:23:25.138Z,6.20
2019-03-03T11:26:12.216Z,5.50
2019-03-03T11:29:02.126Z,5.67
2019-03-03T11:31:49.450Z,6.83
2019-03-03T11:34:30.333Z,5.50
2019-03-03T11:37:17.402Z,5.80
2019-03-03T11:40:03.205Z,5.90
2019-03-03T11:43:08.341Z,6.97
2019-03-03T11:45:42.990Z,6.97
2019-03-03T11:48:36.297Z,7.70
2019-03-03T11:51:26.681Z,7.03
2019-03-03T11:54:01.571Z,5.90
2019-03-03T11:56:34.784Z,6.73
2019-03-03T11:59:21.310Z,6.03
2019-03-03T12:02:05.514Z,6.17
2019-03-03T12:04:58.847Z,5.43
2019-03-03T12:07:52.221Z,5.50
2019-03-03T12:10:38.006Z,5.47
2019-03-03T12:13:28.087Z,5.47
2019-03-03T12:16:21.003Z,5.27
2019-03-03T12:19:08.129Z,5.43
2019-03-03T12:21:57.770Z,4.83
2019-03-03T12:24:39.130Z,5.67
2019-03-03T12:27:29.523Z,5.20
2019-03-03T12:30:18.285Z,6.00
2019-03-03T12:33:08.502Z,4.47
2019-03-03T12:36:01.702Z,5.10
2019-03-03T12:38:39.360Z,4.43
2019-03-03T12:41:25.410Z,3.67
2019-03-03T12:44:08.378Z,4.10
2019-03-03T12:46:56.420Z,3.53
2019-03-03T12:49:31.720Z,3.67
2019-03-03T12:52:17.463Z,3.63
2019-03-03T12:54:55.816Z,3.43
2019-03-03T12:57:58.159Z,3.20
2019-03-03T13:00:42.067Z,4.07
2019-03-03T13:03:41.615Z,3.30
2019-03-03T13:06:23.899Z,3.23
2019-03-03T13:09:01.399Z,3.50
2019-03-03T13:11:47.546Z,3.53
2019-03-03T13:14:37.474Z,2.80
2019-03-03T13:17:27.539Z,3.30
2019-03-03T13:20:06.949Z,3.37
2019-03-03T13:22:55.660Z,2.57
2019-03-03T13:25:42.809Z,3.37
2019-03-03T13:28:48.507Z,2.47
2019-03-03T13:31:36.120Z,2.07
2019-03-03T13:34:21.106Z,2.80
2019-03-03T13:37:10.796Z,2.60
2019-03-03T13:39:56.832Z,2.50
2019-03-03T13:42:41.708Z,2.10
2019-03-03T13:45:10.649Z,3.17
2019-03-03T13:47:38.621Z,3.00
2019-03-03T13:50:07.619Z,2.90
2019-03-03T13:52:35.245Z,2.13
2019-03-03T13:55:03.272Z,2.47
2019-03-03T13:57:30.911Z,2.27
2019-03-03T13:59:58.494Z,3.37
2019-03-03T14:02:26.122Z,2.80
2019-03-03T14:04:53.730Z,2.90
2019-03-03T14:07:21.355Z,3.40
2019-03-03T14:09:48.966Z,3.63
2019-03-03T14:12:16.582Z,3.00
2019-03-03T14:14:45.218Z,3.47
2019-03-03T14:17:12.764Z,2.97
2019-03-03T14:19:40.675Z,3.07
2019-03-03T14:22:08.704Z,3.73
2019-03-03T14:24:36.233Z,3.07
2019-03-03T14:27:10.617Z,3.17
2019-03-03T14:29:33.961Z,3.23
2019-03-03T14:32:01.604Z,3.67
2019-03-03T14:34:29.204Z,3.13
2019-03-03T14:36:56.825Z,3.23
2019-03-03T14:39:24.448Z,2.97
2019-03-03T14:41:52.106Z,2.90
2019-03-03T14:44:20.053Z,3.57
2019-03-03T14:46:47.629Z,3.03
2019-03-03T14:49:15.304Z,3.73
2019-03-03T14:51:42.904Z,3.30
2019-03-03T14:54:10.523Z,3.30
2019-03-03T14:56:38.194Z,2.83
2019-03-03T14:59:05.783Z,3.23
2019-03-03T15:01:33.746Z,3.23
2019-03-03T15:04:01.650Z,2.83
2019-03-03T15:06:29.234Z,2.90
2019-03-03T15:08:57.213Z,3.97
2019-03-03T15:11:24.823Z,3.40
2019-03-03T15:13:52.434Z,2.67
2019-03-03T15:16:20.046Z,3.20
2019-03-03T15:18:49.090Z,3.10
2019-03-03T15:21:24.747Z,2.67
2019-03-03T15:23:46.381Z,2.40
2019-03-03T15:26:13.975Z,2.07
2019-03-03T15:28:42.081Z,3.10
2019-03-03T15:31:09.620Z,2.90
2019-03-03T15:33:37.617Z,2.80
2019-03-03T15:36:05.309Z,2.73
2019-03-03T15:38:32.943Z,2.60
2019-03-03T15:41:00.927Z,2.83
2019-03-03T15:43:28.872Z,2.73
2019-03-03T15:45:56.673Z,3.13
2019-03-03T15:48:24.325Z,2.10
2019-03-03T15:50:51.920Z,2.60
2019-03-03T15:53:19.903Z,2.90
2019-03-03T15:55:47.789Z,2.00
2019-03-03T15:58:15.721Z,2.73
2019-03-03T16:00:43.320Z,2.57
2019-03-03T16:03:11.029Z,1.97
2019-03-03T16:05:40.466Z,2.23
2019-03-03T16:08:08.104Z,2.63
2019-03-03T16:10:35.631Z,2.60
2019-03-03T16:13:04.021Z,2.70
2019-03-03T16:15:31.946Z,2.67
2019-03-03T16:17:59.526Z,2.53
2019-03-03T16:20:27.921Z,2.20
2019-03-03T16:22:55.543Z,2.77
2019-03-03T16:25:23.521Z,3.00
2019-03-03T16:27:51.142Z,3.13
2019-03-03T16:30:19.087Z,2.13
2019-03-03T16:32:46.710Z,2.90
2019-03-03T16:35:14.619Z,2.43
2019-03-03T16:37:42.235Z,2.97
2019-03-03T16:40:13.829Z,2.70
2019-03-03T16:42:41.558Z,3.30
2019-03-03T16:45:09.686Z,3.03
2019-03-03T16:47:37.722Z,2.07
2019-03-03T16:50:05.627Z,2.70
2019-03-03T16:52:33.586Z,2.37
2019-03-03T16:55:01.525Z,2.33
2019-03-03T16:57:29.161Z,2.00
2019-03-03T16:59:57.099Z,3.13
2019-03-03T17:02:24.654Z,2.40
2019-03-03T17:04:52.257Z,2.83
2019-03-03T17:07:19.901Z,3.03
2019-03-03T17:09:47.484Z,2.93
2019-03-03T17:12:15.236Z,2.37
2019-03-03T17:14:42.815Z,3.10
2019-03-03T17:17:10.457Z,3.30
2019-03-03T17:19:38.058Z,3.40
2019-03-03T17:22:05.679Z,2.43
2019-03-03T17:24:33.265Z,2.40
2019-03-03T17:27:01.075Z,2.37
2019-03-03T17:29:28.690Z,2.20
2019-03-03T17:31:56.986Z,2.60
2019-03-03T17:34:24.589Z,2.47
2019-03-03T17:36:52.553Z,3.43
2019-03-03T17:39:20.163Z,2.77
2019-03-03T17:41:47.907Z,2.40
2019-03-03T17:44:16.355Z,2.57
2019-03-03T17:46:43.949Z,2.23
2019-03-03T17:49:11.614Z,2.60
2019-03-03T17:51:39.226Z,2.30
2019-03-03T17:54:07.119Z,2.40
2019-03-03T17:56:35.050Z,2.40
2019-03-03T17:59:02.597Z,2.47
2019-03-03T18:01:30.209Z,2.47
2019-03-03T18:03:57.815Z,2.73
2019-03-03T18:06:25.680Z,2.53
2019-03-03T18:08:53.658Z,2.30
2019-03-03T18:11:21.590Z,3.00
2019-03-03T18:13:49.251Z,2.20
2019-03-03T18:16:17.046Z,1.43
2019-03-03T18:18:44.658Z,2.03
2019-03-03T18:21:12.626Z,2.17
2019-03-03T18:23:45.907Z,1.57
2019-03-03T18:26:14.325Z,1.60
2019-03-03T18:28:41.940Z,1.23
2019-03-03T18:31:09.540Z,1.30
2019-03-03T18:33:37.170Z,1.30
2019-03-03T18:36:05.068Z,1.20
2019-03-03T18:38:32.685Z,1.97
2019-03-03T18:41:00.267Z,1.43
2019-03-03T18:43:28.227Z,1.33
2019-03-03T18:45:55.825Z,1.13
2019-03-03T18:48:23.645Z,1.20
2019-03-03T18:50:51.754Z,1.37
2019-03-03T18:53:19.433Z,1.13
2019-03-03T18:55:46.982Z,1.37
2019-03-03T18:58:14.815Z,1.37
2019-03-03T19:00:42.403Z,1.53
2019-03-03T19:03:10.044Z,1.03
2019-03-03T19:05:37.647Z,1.13
2019-03-03T19:08:05.286Z,0.90
2019-03-03T19:10:32.926Z,0.77
2019-03-03T19:13:00.849Z,0.70
2019-03-03T19:15:28.491Z,1.30
2019-03-03T19:17:55.993Z,1.30
2019-03-03T19:20:23.566Z,1.47
2019-03-03T19:22:51.172Z,1.00
2019-03-03T19:25:19.098Z,0.83
2019-03-03T19:27:46.903Z,1.20
2019-03-03T19:30:16.411Z,1.10
2019-03-03T19:32:44.672Z,1.20
2019-03-03T19:35:12.256Z,1.27
2019-03-03T19:37:39.884Z,1.13
2019-03-03T19:40:08.084Z,1.07
2019-03-03T19:42:35.620Z,0.93
2019-03-03T19:45:04.626Z,0.90
2019-03-03T19:47:32.581Z,1.00
2019-03-03T19:50:00.178Z,0.93
2019-03-03T19:52:28.439Z,1.23
2019-03-03T19:54:55.933Z,0.97
2019-03-03T19:57:23.568Z,0.93
2019-03-03T19:59:51.168Z,0.90
2019-03-03T20:02:18.781Z,1.10
2019-03-03T20:04:46.471Z,1.30
2019-03-03T20:07:14.150Z,1.07
2019-03-03T20:09:41.880Z,0.90
2019-03-03T20:12:09.728Z,1.30
2019-03-03T20:14:37.325Z,1.50
2019-03-03T20:17:04.965Z,1.10
2019-03-03T20:19:32.589Z,0.70
2019-03-03T20:22:00.559Z,1.10
2019-03-03T20:24:28.087Z,1.23
2019-03-03T20:26:55.706Z,0.90
2019-03-03T20:29:23.307Z,1.00
2019-03-03T20:31:51.022Z,0.70
2019-03-03T20:34:18.663Z,0.77
2019-03-03T20:36:46.302Z,0.70
2019-03-03T20:39:15.406Z,1.07
2019-03-03T20:41:42.931Z,1.17
2019-03-03T20:44:10.789Z,1.00
2019-03-03T20:46:38.712Z,0.83
2019-03-03T20:49:06.338Z,0.80
2019-03-03T20:51:34.079Z,0.97
2019-03-03T20:54:01.785Z,0.90
2019-03-03T20:56:29.389Z,0.80
2019-03-03T20:58:56.996Z,0.77
2019-03-03T21:01:24.582Z,1.23
2019-03-03T21:03:52.116Z,0.90
2019-03-03T21:06:19.855Z,0.80
2019-03-03T21:08:47.456Z,0.70
2019-03-03T21:11:15.078Z,0.93
2019-03-03T21:13:43.923Z,0.87
2019-03-03T21:16:11.999Z,0.60
2019-03-03T21:18:39.605Z,0.70
2019-03-03T21:21:07.423Z,0.77
2019-03-03T21:23:35.058Z,0.53
2019-03-03T21:26:02.739Z,0.63
2019-03-03T21:28:30.839Z,0.80
2019-03-03T21:30:58.626Z,0.70
2019-03-03T21:33:26.259Z,0.63
2019-03-03T21:35:54.184Z,0.60
2019-03-03T21:38:22.288Z,1.03
2019-03-03T21:40:49.915Z,0.67
2019-03-03T21:43:18.075Z,0.60
2019-03-03T21:45:46.097Z,0.70
2019-03-03T21:48:13.692Z,0.40
2019-03-03T21:50:41.541Z,0.60
2019-03-03T21:53:09.123Z,0.80
2019-03-03T21:55:36.750Z,0.80
2019-03-03T21:58:06.116Z,0.60
2019-03-03T22:00:34.716Z,0.70
2019-03-03T22:03:03.243Z,1.00
2019-03-03T22:05:30.877Z,1.03
2019-03-03T22:07:58.496Z,1.20
2019-03-03T22:10:29.401Z,0.80
2019-03-03T22:12:58.455Z,0.90
2019-03-03T22:15:26.962Z,0.83
2019-03-03T22:17:55.179Z,1.17
2019-03-03T22:20:23.171Z,0.73
2019-03-03T22:22:51.582Z,0.83
2019-03-03T22:25:20.974Z,1.00
2019-03-03T22:27:50.363Z,0.77
2019-03-03T22:30:19.863Z,1.00
2019-03-03T22:32:49.379Z,0.80
2019-03-03T22:35:19.108Z,0.70
2019-03-03T22:37:48.915Z,1.00
2019-03-03T22:40:18.511Z,1.20
2019-03-03T22:42:48.029Z,0.67
2019-03-03T22:45:16.429Z,1.20
2019-03-03T22:47:45.045Z,0.90
2019-03-03T22:50:13.206Z,0.97
2019-03-03T22:52:40.738Z,1.07
2019-03-03T22:55:10.151Z,1.10
2019-03-03T22:57:37.738Z,0.70
2019-03-03T23:00:09.482Z,0.90
2019-03-03T23:02:37.108Z,1.10
2019-03-03T23:05:30.386Z,0.87
2019-03-03T23:08:03.811Z,1.00
2019-03-03T23:10:40.104Z,0.70
2019-03-03T23:13:27.283Z,0.97
2019-03-03T23:16:13.008Z,1.50
2019-03-03T23:19:13.452Z,1.00
2019-03-03T23:21:51.746Z,1.00
2019-03-03T23:24:45.006Z,0.90
2019-03-03T23:27:13.360Z,0.77
2019-03-03T23:29:40.924Z,0.60
2019-03-03T23:32:08.525Z,0.70
2019-03-03T23:34:36.154Z,0.60
2019-03-03T23:37:04.104Z,0.73
2019-03-03T23:39:31.899Z,0.80
2019-03-03T23:41:59.734Z,0.80
2019-03-03T23:44:27.553Z,0.60
2019-03-03T23:46:55.260Z,0.90
2019-03-03T23:49:23.151Z,0.60
2019-03-03T23:51:50.724Z,0.67
2019-03-03T23:54:18.376Z,0.73
2019-03-03T23:57:05.443Z,0.70
2019-03-03T23:59:33.161Z,0.50
